Time;durP1;ratioP1;P1;durP2;ratioP2;P2;SDS_P1;SDS_P2;PMS_P1;PMS_P2;Temp;Humidity;BMP_temperature;BMP_pressure;BME280_temperature;BME280_humidity;BME280_pressure;Samples;Min_cycle;Max_cycle;Signal;HPM_P1;HPM_P2
2024/04/13 00:00:32;;;;;;;7.20;4.73;;;10.90;98.00;;;;;;5344123;26;20462;-60
2024/04/13 00:02:59;;;;;;;10.27;5.40;;;10.90;98.00;;;;;;5343940;26;20507;-61
2024/04/13 00:05:28;;;;;;;10.90;5.40;;;10.80;98.00;;;;;;5343599;26;20468;-61
2024/04/13 00:07:57;;;;;;;7.70;5.20;;;10.80;98.00;;;;;;5343926;26;21047;-61
2024/04/13 00:10:26;;;;;;;9.70;5.40;;;10.70;98.00;;;;;;5343465;26;20555;-62
2024/04/13 00:12:54;;;;;;;9.63;5.43;;;10.60;98.00;;;;;;5343544;26;20507;-61
2024/04/13 00:15:22;;;;;;;10.33;5.70;;;10.70;98.00;;;;;;5341032;26;20515;-62
2024/04/13 00:17:49;;;;;;;8.63;4.90;;;10.90;98.00;;;;;;5342945;26;20589;-61
2024/04/13 00:20:17;;;;;;;8.80;5.30;;;11.00;98.00;;;;;;5342101;26;20463;-60
2024/04/13 00:22:44;;;;;;;9.77;5.40;;;11.00;98.00;;;;;;5342998;26;20506;-62
2024/04/13 00:25:16;;;;;;;8.97;5.40;;;11.10;98.00;;;;;;5341101;26;20522;-61
2024/04/13 00:27:43;;;;;;;9.27;5.40;;;10.90;98.00;;;;;;5343519;26;20509;-60
2024/04/13 00:30:12;;;;;;;8.60;5.70;;;10.90;98.00;;;;;;5343706;26;20463;-61
2024/04/13 00:32:38;;;;;;;9.20;5.17;;;10.80;98.00;;;;;;5342738;26;20546;-62
2024/04/13 00:35:07;;;;;;;7.53;4.87;;;10.70;98.00;;;;;;5342986;26;20503;-62
2024/04/13 00:37:33;;;;;;;11.93;5.40;;;10.70;98.00;;;;;;5343086;26;20519;-61
2024/04/13 00:40:03;;;;;;;9.37;5.10;;;10.80;98.00;;;;;;5343029;26;20523;-61
2024/04/13 00:42:33;;;;;;;8.40;5.27;;;10.80;98.00;;;;;;5342884;26;20520;-62
2024/04/13 00:45:04;;;;;;;10.60;5.33;;;10.70;98.00;;;;;;5341945;26;20518;-61
2024/04/13 00:47:34;;;;;;;7.87;4.93;;;10.90;98.00;;;;;;5342322;26;20476;-62
2024/04/13 00:50:11;;;;;;;7.63;4.90;;;10.90;98.00;;;;;;5342224;26;20468;-62
2024/04/13 00:52:38;;;;;;;8.97;4.97;;;10.80;98.00;;;;;;5343233;26;20774;-61
2024/04/13 00:55:07;;;;;;;12.53;5.50;;;10.70;98.00;;;;;;5343027;26;21033;-61
2024/04/13 00:57:37;;;;;;;8.57;4.97;;;10.70;98.00;;;;;;5342600;26;20463;-62
2024/04/13 01:00:12;;;;;;;8.60;5.27;;;10.70;98.00;;;;;;5372922;26;20586;-60
2024/04/13 01:02:42;;;;;;;10.73;5.20;;;10.60;98.00;;;;;;5381009;26;20453;-60
2024/04/13 01:05:13;;;;;;;14.53;5.47;;;10.40;98.00;;;;;;5380961;26;20469;-62
2024/04/13 01:07:40;;;;;;;13.67;5.30;;;10.30;98.00;;;;;;5380292;26;20584;-60
2024/04/13 01:10:11;;;;;;;9.63;5.00;;;10.20;98.00;;;;;;5380410;26;21379;-61
2024/04/13 01:12:43;;;;;;;10.17;5.60;;;10.30;98.00;;;;;;5380630;26;20529;-62
2024/04/13 01:15:11;;;;;;;8.17;5.40;;;10.10;98.00;;;;;;5380962;26;20455;-61
2024/04/13 01:17:37;;;;;;;9.63;4.87;;;10.00;98.00;;;;;;5380656;26;20856;-61
2024/04/13 01:20:08;;;;;;;8.80;4.90;;;10.20;98.00;;;;;;5380465;26;20458;-61
2024/04/13 01:22:39;;;;;;;10.57;4.83;;;10.20;98.00;;;;;;5380659;26;20505;-61
2024/04/13 01:25:13;;;;;;;12.90;5.60;;;10.10;98.00;;;;;;5380979;26;20473;-62
2024/04/13 01:27:39;;;;;;;11.10;4.80;;;10.10;98.00;;;;;;5380200;26;20917;-61
2024/04/13 01:30:11;;;;;;;9.60;5.30;;;10.10;98.00;;;;;;5380060;26;20517;-61
2024/04/13 01:32:38;;;;;;;9.83;5.07;;;10.20;98.00;;;;;;5380308;26;20966;-61
2024/04/13 01:35:11;;;;;;;7.80;5.00;;;10.40;98.00;;;;;;5380366;26;21106;-61
2024/04/13 01:37:38;;;;;;;9.73;4.87;;;10.40;98.00;;;;;;5380036;26;20547;-62
2024/04/13 01:40:11;;;;;;;9.80;5.00;;;10.30;98.00;;;;;;5380343;26;20517;-60
2024/04/13 01:42:39;;;;;;;7.20;4.63;;;10.40;98.00;;;;;;5381173;26;20466;-62
2024/04/13 01:45:08;;;;;;;8.47;5.20;;;10.50;98.00;;;;;;5380789;26;20466;-62
2024/04/13 01:47:35;;;;;;;7.90;4.63;;;10.50;98.00;;;;;;5381037;26;20470;-61
2024/04/13 01:50:04;;;;;;;12.30;5.30;;;10.60;98.00;;;;;;5380804;26;20456;-62
2024/04/13 01:52:30;;;;;;;8.30;4.70;;;10.60;98.00;;;;;;5380422;26;20770;-61
2024/04/13 01:54:59;;;;;;;8.70;4.90;;;10.60;98.00;;;;;;5380613;26;20517;-61
2024/04/13 01:57:29;;;;;;;9.20;5.20;;;10.70;98.00;;;;;;5379912;26;21001;-62
2024/04/13 01:59:58;;;;;;;9.40;5.20;;;10.40;98.00;;;;;;5379989;26;20466;-61
2024/04/13 02:02:24;;;;;;;10.10;5.30;;;10.20;98.00;;;;;;5380454;26;20467;-61
2024/04/13 02:04:53;;;;;;;9.70;5.90;;;10.00;98.00;;;;;;5380253;26;20507;-60
2024/04/13 02:07:19;;;;;;;9.03;5.23;;;10.00;98.00;;;;;;5379949;26;20510;-60
2024/04/13 02:09:48;;;;;;;11.30;5.03;;;10.00;98.00;;;;;;5379775;26;20576;-60
2024/04/13 02:12:14;;;;;;;9.93;5.47;;;9.80;98.00;;;;;;5379641;26;20463;-61
2024/04/13 02:14:45;;;;;;;9.30;5.43;;;9.70;98.00;;;;;;5379849;26;20468;-61
2024/04/13 02:17:11;;;;;;;12.43;5.73;;;9.50;98.00;;;;;;5379527;26;20563;-62
2024/04/13 02:19:42;;;;;;;10.00;5.50;;;9.40;98.00;;;;;;5377689;26;20523;-62
2024/04/13 02:22:10;;;;;;;8.87;5.30;;;9.50;98.00;;;;;;5377897;26;20803;-61
2024/04/13 02:24:39;;;;;;;9.60;5.00;;;9.70;98.00;;;;;;5379672;26;20774;-61
2024/04/13 02:27:06;;;;;;;10.60;5.60;;;9.80;98.00;;;;;;5379563;26;20465;-61
2024/04/13 02:29:35;;;;;;;8.60;4.90;;;10.00;98.00;;;;;;5379963;26;20861;-61
2024/04/13 02:32:05;;;;;;;9.10;4.93;;;9.90;98.00;;;;;;5379448;26;20493;-60
2024/04/13 02:34:34;;;;;;;11.73;5.57;;;10.00;98.00;;;;;;5379875;26;20608;-62
2024/04/13 02:37:00;;;;;;;9.40;5.50;;;10.00;98.00;;;;;;5379734;26;21078;-60
2024/04/13 02:39:29;;;;;;;8.67;5.20;;;10.00;98.00;;;;;;5379722;26;20534;-61
2024/04/13 02:41:55;;;;;;;15.33;5.87;;;9.80;98.00;;;;;;5379182;26;21028;-60
2024/04/13 02:44:25;;;;;;;8.50;5.63;;;9.60;98.00;;;;;;5379511;26;20478;-60
2024/04/13 02:46:52;;;;;;;9.87;5.47;;;9.40;98.00;;;;;;5379459;26;20804;-59
2024/04/13 02:49:23;;;;;;;9.33;5.30;;;9.40;98.00;;;;;;5379501;26;20468;-60
2024/04/13 02:51:49;;;;;;;8.50;5.60;;;9.30;98.00;;;;;;5379752;26;20512;-62
2024/04/13 02:54:18;;;;;;;7.90;5.07;;;9.30;98.00;;;;;;5379660;26;20671;-61
2024/04/13 02:56:44;;;;;;;13.33;5.60;;;9.20;98.00;;;;;;5378314;26;21062;-61
2024/04/13 02:59:16;;;;;;;8.77;5.47;;;9.30;98.00;;;;;;5379596;26;20535;-60
2024/04/13 03:01:43;;;;;;;10.17;5.43;;;9.50;98.00;;;;;;5379501;26;20567;-61
2024/04/13 03:04:12;;;;;;;10.93;5.23;;;9.50;98.00;;;;;;5379333;26;20464;-60
2024/04/13 03:06:41;;;;;;;12.40;5.37;;;9.30;98.00;;;;;;5378891;26;21086;-62
2024/04/13 03:09:12;;;;;;;10.70;5.47;;;9.20;98.00;;;;;;5378645;26;20709;-62
2024/04/13 03:11:39;;;;;;;9.83;5.20;;;9.20;98.00;;;;;;5379210;26;20465;-62
2024/04/13 03:14:08;;;;;;;10.50;5.33;;;9.10;98.00;;;;;;5377651;26;20502;-61
2024/04/13 03:16:35;;;;;;;10.70;5.40;;;9.10;98.00;;;;;;5379162;26;20469;-60
2024/04/13 03:19:04;;;;;;;7.63;4.60;;;9.00;98.00;;;;;;5378975;26;20510;-61
2024/04/13 03:21:31;;;;;;;12.00;5.57;;;9.00;98.00;;;;;;5377635;26;20460;-59
2024/04/13 03:24:03;;;;;;;11.73;5.50;;;9.10;98.00;;;;;;5378465;26;20533;-61
2024/04/13 03:26:31;;;;;;;10.90;6.00;;;9.10;98.00;;;;;;5379301;26;20468;-61
2024/04/13 03:29:00;;;;;;;9.83;5.47;;;9.20;98.00;;;;;;5379000;26;20462;-60
2024/04/13 03:31:26;;;;;;;9.67;5.33;;;9.00;98.00;;;;;;5379445;26;20461;-61
2024/04/13 03:33:55;;;;;;;8.33;4.83;;;9.00;98.00;;;;;;5379429;26;20460;-61
2024/04/13 03:36:21;;;;;;;10.77;5.37;;;9.00;98.00;;;;;;5379318;26;20464;-60
2024/04/13 03:38:49;;;;;;;10.60;5.60;;;9.10;98.00;;;;;;5379176;26;20468;-60
2024/04/13 03:41:22;;;;;;;10.20;5.23;;;9.10;98.00;;;;;;5379153;26;20570;-60
2024/04/13 03:43:50;;;;;;;8.13;5.33;;;8.90;98.00;;;;;;5379616;26;20501;-61
2024/04/13 03:46:17;;;;;;;8.73;5.23;;;8.80;98.00;;;;;;5378806;26;20824;-60
2024/04/13 03:48:45;;;;;;;8.43;5.37;;;9.00;98.00;;;;;;5378906;26;20610;-60
2024/04/13 03:51:13;;;;;;;9.83;5.20;;;9.10;98.00;;;;;;5378583;26;20512;-62
2024/04/13 03:53:41;;;;;;;9.80;5.53;;;9.00;98.00;;;;;;5378794;26;20472;-60
2024/04/13 03:56:09;;;;;;;8.03;5.03;;;9.00;98.00;;;;;;5378218;26;20522;-60
2024/04/13 03:58:41;;;;;;;8.40;5.13;;;8.90;98.00;;;;;;5378096;26;20537;-60
2024/04/13 04:01:07;;;;;;;9.83;5.70;;;9.00;98.00;;;;;;5378547;26;20607;-60
2024/04/13 04:03:35;;;;;;;12.07;5.70;;;9.00;98.00;;;;;;5378746;26;20527;-61
2024/04/13 04:06:01;;;;;;;8.20;4.90;;;8.80;98.00;;;;;;5378325;26;21092;-61
2024/04/13 04:08:30;;;;;;;8.63;5.03;;;8.80;98.00;;;;;;5378270;26;20492;-63
2024/04/13 04:10:56;;;;;;;10.00;5.40;;;8.90;98.00;;;;;;5377784;26;20468;-61
2024/04/13 04:13:26;;;;;;;9.27;5.60;;;8.90;98.00;;;;;;5378331;26;20461;-60
2024/04/13 04:15:54;;;;;;;10.50;5.50;;;8.90;98.00;;;;;;5377659;26;20518;-62
2024/04/13 04:18:23;;;;;;;9.40;5.30;;;8.90;98.00;;;;;;5377561;26;20457;-61
2024/04/13 04:20:50;;;;;;;10.07;5.70;;;9.00;98.00;;;;;;5378346;26;20874;-60
2024/04/13 04:23:19;;;;;;;9.50;5.40;;;8.80;98.00;;;;;;5377492;26;20582;-61
2024/04/13 04:25:46;;;;;;;11.50;5.77;;;8.60;98.00;;;;;;5378599;26;20552;-62
2024/04/13 04:28:15;;;;;;;8.47;5.50;;;8.50;98.00;;;;;;5377851;26;20467;-60
2024/04/13 04:30:45;;;;;;;12.03;5.70;;;8.50;98.00;;;;;;5378158;26;21108;-60
2024/04/13 04:33:16;;;;;;;10.73;6.00;;;8.60;98.00;;;;;;5379965;26;20466;-59
2024/04/13 04:35:43;;;;;;;9.77;5.53;;;8.40;98.00;;;;;;5381521;26;20467;-60
2024/04/13 04:38:12;;;;;;;11.00;6.17;;;8.50;98.00;;;;;;5380999;26;20605;-61
2024/04/13 04:40:39;;;;;;;9.20;5.33;;;8.50;98.00;;;;;;5380655;26;20502;-61
2024/04/13 04:43:08;;;;;;;13.07;5.30;;;8.40;98.00;;;;;;5381101;26;20473;-61
2024/04/13 04:45:36;;;;;;;9.43;5.40;;;8.40;98.00;;;;;;5382106;26;20779;-61
2024/04/13 04:48:08;;;;;;;12.30;5.93;;;8.50;98.00;;;;;;5382179;26;20576;-61
2024/04/13 04:50:37;;;;;;;9.20;5.27;;;8.50;98.00;;;;;;5382345;26;20508;-61
2024/04/13 04:53:06;;;;;;;9.37;5.50;;;8.50;98.00;;;;;;5382328;26;20577;-61
2024/04/13 04:55:32;;;;;;;8.17;5.27;;;8.70;98.00;;;;;;5382245;26;20563;-60
2024/04/13 04:58:01;;;;;;;10.70;5.37;;;8.80;98.00;;;;;;5381583;26;20519;-60
2024/04/13 05:00:27;;;;;;;12.17;5.37;;;8.80;98.00;;;;;;5381848;26;20457;-61
2024/04/13 05:02:55;;;;;;;8.87;5.20;;;8.80;98.00;;;;;;5381561;26;20569;-60
2024/04/13 05:05:22;;;;;;;9.07;5.30;;;8.60;98.00;;;;;;5381546;26;20985;-60
2024/04/13 05:07:53;;;;;;;9.53;5.40;;;8.70;98.00;;;;;;5381643;26;20979;-61
2024/04/13 05:10:19;;;;;;;8.20;5.30;;;8.70;98.00;;;;;;5381798;26;20451;-61
2024/04/13 05:12:49;;;;;;;12.30;5.43;;;8.80;98.00;;;;;;5382028;26;20460;-62
2024/04/13 05:15:15;;;;;;;13.53;6.10;;;8.80;98.00;;;;;;5382186;26;20506;-62
2024/04/13 05:17:44;;;;;;;11.50;5.93;;;9.00;98.00;;;;;;5380359;26;20468;-61
2024/04/13 05:20:11;;;;;;;13.33;6.20;;;9.10;98.00;;;;;;5382010;26;20511;-60
2024/04/13 05:22:40;;;;;;;9.40;5.57;;;9.10;98.00;;;;;;5382012;26;20544;-60
2024/04/13 05:25:09;;;;;;;11.83;6.00;;;9.20;98.00;;;;;;5382070;26;20472;-60
2024/04/13 05:27:39;;;;;;;11.17;6.10;;;9.20;98.00;;;;;;5382278;26;20499;-60
2024/04/13 05:30:06;;;;;;;11.00;5.87;;;9.20;98.00;;;;;;5382211;26;20459;-59
2024/04/13 05:32:35;;;;;;;11.10;6.03;;;9.30;98.00;;;;;;5382263;26;20464;-61
2024/04/13 05:35:03;;;;;;;10.10;5.60;;;9.40;98.00;;;;;;5381770;26;21090;-61
2024/04/13 05:37:32;;;;;;;10.57;5.93;;;9.40;98.00;;;;;;5381997;26;20518;-60
2024/04/13 05:39:59;;;;;;;9.93;6.50;;;9.30;98.00;;;;;;5381535;26;20464;-59
2024/04/13 05:42:30;;;;;;;9.70;5.80;;;9.20;98.00;;;;;;5381891;26;20456;-59
2024/04/13 05:44:58;;;;;;;9.70;6.07;;;9.30;98.00;;;;;;5379130;26;20875;-60
2024/04/13 05:47:26;;;;;;;10.10;5.93;;;9.30;98.00;;;;;;5381286;26;20567;-61
2024/04/13 05:49:53;;;;;;;11.57;6.17;;;9.30;98.00;;;;;;5381460;26;20465;-61
2024/04/13 05:52:21;;;;;;;10.53;5.90;;;9.40;98.00;;;;;;5381674;26;20510;-60
2024/04/13 05:54:47;;;;;;;12.70;5.77;;;9.50;98.00;;;;;;5381336;26;20456;-60
2024/04/13 05:57:18;;;;;;;14.67;7.77;;;9.60;98.00;;;;;;5381047;26;20461;-60
2024/04/13 05:59:47;;;;;;;12.47;6.40;;;9.50;98.00;;;;;;5381338;26;20511;-59
2024/04/13 06:02:16;;;;;;;9.07;5.73;;;9.30;98.00;;;;;;5381226;26;20815;-58
2024/04/13 06:04:43;;;;;;;12.63;6.70;;;9.30;98.00;;;;;;5381149;26;20978;-59
2024/04/13 06:07:12;;;;;;;9.27;5.90;;;9.30;98.00;;;;;;5379427;26;20538;-59
2024/04/13 06:09:38;;;;;;;12.60;6.73;;;9.40;98.00;;;;;;5380951;26;20503;-59
2024/04/13 06:12:07;;;;;;;13.57;6.53;;;9.60;98.00;;;;;;5381139;26;20476;-59
2024/04/13 06:14:34;;;;;;;12.10;6.80;;;9.70;98.00;;;;;;5381170;26;20457;-58
2024/04/13 06:17:07;;;;;;;12.87;6.90;;;9.90;98.00;;;;;;5380921;26;20557;-59
2024/04/13 06:19:33;;;;;;;14.17;6.20;;;10.00;98.00;;;;;;5381127;26;20521;-59
2024/04/13 06:22:01;;;;;;;13.17;6.93;;;10.30;98.00;;;;;;5380884;26;20446;-59
2024/04/13 06:24:28;;;;;;;12.70;6.40;;;10.40;98.00;;;;;;5380887;26;20840;-58
2024/04/13 06:27:00;;;;;;;14.47;7.20;;;10.40;98.00;;;;;;5380874;26;20474;-61
2024/04/13 06:29:26;;;;;;;13.57;7.30;;;10.40;98.00;;;;;;5380978;26;20458;-59
2024/04/13 06:31:55;;;;;;;18.23;8.70;;;10.40;98.00;;;;;;5380846;26;20478;-58
2024/04/13 06:34:30;;;;;;;13.80;7.63;;;10.70;98.00;;;;;;5380844;26;20987;-59
2024/04/13 06:36:59;;;;;;;19.93;8.53;;;10.70;98.00;;;;;;5380861;26;20537;-60
2024/04/13 06:39:26;;;;;;;16.20;7.40;;;10.70;98.00;;;;;;5365397;26;20484;-61
2024/04/13 06:41:55;;;;;;;15.20;7.13;;;10.80;98.00;;;;;;5344408;26;20900;-58
2024/04/13 06:44:21;;;;;;;11.70;6.90;;;10.80;98.00;;;;;;5345108;26;20470;-59
2024/04/13 06:46:51;;;;;;;11.00;6.87;;;10.90;98.00;;;;;;5345216;26;20467;-59
2024/04/13 06:49:17;;;;;;;11.27;6.80;;;11.00;98.00;;;;;;5345208;26;20558;-59
2024/04/13 06:51:49;;;;;;;11.70;6.73;;;11.10;98.00;;;;;;5345443;26;20546;-60
2024/04/13 06:54:15;;;;;;;13.37;7.60;;;11.20;98.00;;;;;;5345666;26;20542;-60
2024/04/13 06:56:45;;;;;;;12.60;7.10;;;11.30;98.00;;;;;;5343948;26;20471;-60
2024/04/13 06:59:12;;;;;;;12.40;6.50;;;11.40;98.00;;;;;;5344396;26;20525;-59
2024/04/13 07:01:42;;;;;;;11.83;7.10;;;11.70;98.00;;;;;;5345877;26;20472;-59
2024/04/13 07:04:08;;;;;;;14.07;7.60;;;11.70;98.00;;;;;;5345591;26;20461;-59
2024/04/13 07:06:39;;;;;;;16.13;6.77;;;11.80;98.00;;;;;;5344957;26;20473;-59
2024/04/13 07:09:11;;;;;;;12.27;6.37;;;12.10;98.00;;;;;;5345497;26;20607;-59
2024/04/13 07:11:39;;;;;;;13.97;7.50;;;12.10;98.00;;;;;;5345196;26;21029;-59
2024/04/13 07:14:06;;;;;;;13.10;7.40;;;12.20;98.00;;;;;;5345722;26;20460;-59
2024/04/13 07:16:35;;;;;;;13.97;6.93;;;12.40;98.00;;;;;;5343671;26;20532;-59
2024/04/13 07:19:01;;;;;;;13.53;7.43;;;12.50;98.00;;;;;;5345351;26;20520;-58
2024/04/13 07:21:31;;;;;;;11.77;6.43;;;12.60;98.00;;;;;;5344124;26;20461;-58
2024/04/13 07:23:57;;;;;;;13.33;7.27;;;12.70;98.00;;;;;;5345527;26;20504;-59
2024/04/13 07:26:28;;;;;;;12.57;7.43;;;12.80;98.00;;;;;;5345375;26;20790;-60
2024/04/13 07:28:58;;;;;;;13.37;7.60;;;13.00;98.00;;;;;;5345520;26;20506;-59
2024/04/13 07:31:27;;;;;;;13.40;7.67;;;13.30;98.00;;;;;;5343466;26;20458;-59
2024/04/13 07:33:53;;;;;;;12.47;7.30;;;13.40;98.00;;;;;;5345147;26;20834;-59
2024/04/13 07:36:21;;;;;;;20.20;7.73;;;13.50;98.00;;;;;;5344820;26;20524;-59
2024/04/13 07:38:47;;;;;;;12.50;7.43;;;13.70;98.00;;;;;;5345065;26;20829;-61
2024/04/13 07:41:17;;;;;;;12.50;7.63;;;13.80;98.00;;;;;;5344076;26;20573;-60
2024/04/13 07:43:46;;;;;;;11.67;7.57;;;13.90;98.00;;;;;;5344742;26;20465;-59
2024/04/13 07:46:16;;;;;;;12.53;7.30;;;13.90;98.00;;;;;;5344647;26;20990;-59
2024/04/13 07:48:44;;;;;;;16.23;7.70;;;14.00;98.00;;;;;;5344910;26;20469;-59
2024/04/13 07:51:14;;;;;;;14.90;7.50;;;14.10;98.00;;;;;;5344672;26;20477;-60
2024/04/13 07:53:42;;;;;;;13.60;7.33;;;14.20;98.00;;;;;;5342986;26;20807;-61
2024/04/13 07:56:08;;;;;;;16.40;7.77;;;14.40;98.00;;;;;;5344811;26;20843;-59
2024/04/13 07:58:37;;;;;;;12.90;7.00;;;14.70;98.00;;;;;;5344716;26;20465;-59
2024/04/13 08:01:06;;;;;;;12.67;7.80;;;14.80;98.00;;;;;;5344436;26;20454;-61
2024/04/13 08:03:35;;;;;;;12.67;6.87;;;15.00;98.00;;;;;;5344615;26;20522;-60
2024/04/13 08:06:01;;;;;;;11.80;7.57;;;15.20;98.00;;;;;;5344495;26;20976;-59
2024/04/13 08:08:30;;;;;;;16.70;7.60;;;15.30;98.00;;;;;;5344099;26;20532;-59
2024/04/13 08:10:56;;;;;;;12.90;7.40;;;15.50;98.00;;;;;;5342425;26;20469;-60
2024/04/13 08:13:26;;;;;;;14.47;6.90;;;15.60;98.00;;;;;;5356328;26;20484;-60
2024/04/13 08:15:52;;;;;;;17.70;7.30;;;15.80;98.00;;;;;;5342861;26;20521;-61
2024/04/13 08:18:24;;;;;;;14.17;7.50;;;15.90;98.00;;;;;;5341867;26;20541;-63
2024/04/13 08:20:51;;;;;;;11.20;6.93;;;16.10;98.00;;;;;;5343651;26;20979;-60
2024/04/13 08:23:19;;;;;;;12.07;7.50;;;16.20;98.00;;;;;;5346681;26;20975;-60
2024/04/13 08:25:46;;;;;;;13.20;6.93;;;16.40;98.00;;;;;;5376866;26;20981;-59
2024/04/13 08:28:14;;;;;;;15.83;6.97;;;16.50;98.00;;;;;;5377281;26;20579;-59
2024/04/13 08:30:42;;;;;;;13.17;7.33;;;16.70;98.00;;;;;;5378889;26;20441;-61
2024/04/13 08:33:11;;;;;;;14.00;6.90;;;16.80;98.00;;;;;;5376933;26;20523;-60
2024/04/13 08:35:41;;;;;;;12.20;7.37;;;17.00;98.00;;;;;;5377325;26;20448;-59
2024/04/13 08:38:10;;;;;;;12.93;6.73;;;17.10;98.00;;;;;;5379075;26;20499;-59
2024/04/13 08:40:38;;;;;;;13.03;6.20;;;17.30;98.00;;;;;;5378740;26;20544;-59
2024/04/13 08:43:07;;;;;;;12.73;6.43;;;17.40;98.00;;;;;;5378457;26;20573;-59
2024/04/13 08:45:35;;;;;;;15.10;6.83;;;17.50;98.00;;;;;;5378803;26;20459;-60
2024/04/13 08:48:05;;;;;;;16.27;7.03;;;17.70;98.00;;;;;;5376830;26;20560;-61
2024/04/13 08:50:32;;;;;;;9.33;6.20;;;17.90;98.00;;;;;;5378839;26;20973;-60
2024/04/13 08:53:07;;;;;;;12.53;6.70;;;18.00;98.00;;;;;;5378693;26;20468;-59
2024/04/13 08:55:37;;;;;;;11.63;6.53;;;18.20;98.00;;;;;;5378949;26;20839;-60
2024/04/13 08:58:08;;;;;;;11.30;6.50;;;18.50;98.00;;;;;;5376938;26;20576;-60
2024/04/13 09:00:35;;;;;;;13.97;6.83;;;18.70;98.00;;;;;;5378756;26;20475;-60
2024/04/13 09:03:05;;;;;;;12.13;6.30;;;18.90;98.00;;;;;;5378561;26;20463;-61
2024/04/13 09:05:31;;;;;;;11.27;6.77;;;19.10;98.00;;;;;;5378612;26;20728;-60
2024/04/13 09:08:03;;;;;;;11.80;7.00;;;19.30;98.00;;;;;;5378375;26;20463;-60
2024/04/13 09:10:36;;;;;;;12.40;7.47;;;19.40;98.00;;;;;;5378629;26;20479;-61
2024/04/13 09:13:06;;;;;;;13.53;6.60;;;19.50;98.00;;;;;;5378447;26;20464;-60
2024/04/13 09:15:32;;;;;;;15.20;7.37;;;19.70;98.00;;;;;;5378225;26;20463;-59
2024/04/13 09:18:01;;;;;;;11.43;6.80;;;19.70;98.00;;;;;;5378156;26;20514;-59
2024/04/13 09:20:29;;;;;;;10.67;6.20;;;19.90;98.00;;;;;;5380777;26;20467;-59
2024/04/13 09:22:58;;;;;;;15.07;6.40;;;20.10;98.00;;;;;;5381751;26;20878;-59
2024/04/13 09:25:25;;;;;;;12.80;6.50;;;20.20;98.00;;;;;;5382096;26;20584;-59
2024/04/13 09:28:04;;;;;;;11.03;5.87;;;20.40;98.00;;;;;;5381661;26;20490;-59
2024/04/13 09:30:32;;;;;;;7.80;5.57;;;20.60;98.00;;;;;;5381838;26;20520;-60
2024/04/13 09:33:03;;;;;;;9.20;5.17;;;20.70;98.00;;;;;;5381674;26;21109;-59
2024/04/13 09:35:29;;;;;;;18.53;6.20;;;20.90;98.00;;;;;;5381790;26;20455;-59
2024/04/13 09:37:59;;;;;;;8.83;5.67;;;21.20;98.00;;;;;;5381322;26;21263;-59
2024/04/13 09:40:25;;;;;;;9.33;5.13;;;21.30;98.00;;;;;;5381466;26;20456;-60
2024/04/13 09:42:54;;;;;;;9.50;5.57;;;21.40;98.00;;;;;;5379868;26;20517;-59
2024/04/13 09:45:24;;;;;;;10.63;5.30;;;21.40;98.00;;;;;;5381512;26;20468;-60
2024/04/13 09:47:55;;;;;;;9.80;5.40;;;21.60;98.00;;;;;;5381166;26;20476;-59
2024/04/13 09:50:21;;;;;;;8.10;4.83;;;21.90;98.00;;;;;;5381455;26;20559;-60
2024/04/13 09:52:51;;;;;;;9.00;4.50;;;22.10;98.00;;;;;;5381567;26;20460;-59
2024/04/13 09:55:18;;;;;;;6.17;4.10;;;22.20;97.60;;;;;;5381382;26;20515;-60
2024/04/13 09:57:49;;;;;;;7.40;4.60;;;22.30;98.00;;;;;;5381567;26;21129;-59
2024/04/13 10:00:16;;;;;;;6.90;4.60;;;22.50;97.00;;;;;;5380908;26;21031;-59
2024/04/13 10:02:55;;;;;;;8.80;4.23;;;22.60;96.10;;;;;;5381071;26;20472;-60
2024/04/13 10:05:24;;;;;;;6.13;4.23;;;22.70;98.00;;;;;;5379354;26;21026;-60
2024/04/13 10:07:53;;;;;;;8.00;4.30;;;22.90;98.00;;;;;;5380879;26;20512;-61
2024/04/13 10:10:21;;;;;;;7.40;4.70;;;22.90;98.00;;;;;;5381082;26;20456;-60
2024/04/13 10:12:52;;;;;;;7.10;4.40;;;23.10;98.00;;;;;;5381139;26;20479;-59
2024/04/13 10:15:20;;;;;;;9.17;4.83;;;23.20;98.00;;;;;;5381208;26;21080;-59
2024/04/13 10:17:53;;;;;;;6.40;4.20;;;23.50;94.70;;;;;;5380970;26;20472;-59
2024/04/13 10:20:19;;;;;;;6.87;4.40;;;23.40;93.70;;;;;;5380881;26;20506;-60
2024/04/13 10:22:55;;;;;;;6.80;4.37;;;23.60;97.30;;;;;;5380909;26;20634;-60
2024/04/13 10:25:27;;;;;;;8.10;4.70;;;23.60;95.70;;;;;;5381338;26;20509;-59
2024/04/13 10:28:06;;;;;;;8.20;4.50;;;23.70;95.10;;;;;;5379168;26;20459;-61
2024/04/13 10:30:52;;;;;;;8.73;4.87;;;23.70;92.60;;;;;;5381145;26;20467;-59
2024/04/13 10:33:28;;;;;;;6.20;4.40;;;23.70;92.40;;;;;;5379736;26;21350;-59
2024/04/13 10:36:01;;;;;;;7.57;4.37;;;23.70;91.80;;;;;;5380916;26;20459;-59
2024/04/13 10:38:31;;;;;;;8.63;4.77;;;23.80;93.40;;;;;;5380623;26;20503;-60
2024/04/13 10:40:58;;;;;;;8.40;4.23;;;24.00;93.80;;;;;;5379832;26;20651;-60
2024/04/13 10:43:27;;;;;;;7.60;4.30;;;24.20;94.70;;;;;;5380325;26;20468;-59
2024/04/13 10:45:56;;;;;;;7.53;4.13;;;24.40;92.00;;;;;;5380021;26;20918;-59
2024/04/13 10:48:30;;;;;;;9.37;4.93;;;24.40;91.50;;;;;;5381150;26;20512;-59
2024/04/13 10:50:57;;;;;;;5.47;4.10;;;24.40;92.90;;;;;;5381078;26;20451;-59
2024/04/13 10:53:28;;;;;;;7.27;4.57;;;24.40;90.80;;;;;;5380971;26;20531;-61
2024/04/13 10:55:56;;;;;;;8.53;4.40;;;24.50;90.50;;;;;;5381071;26;20464;-59
2024/04/13 10:58:30;;;;;;;10.93;4.63;;;24.60;95.30;;;;;;5379916;26;20472;-59
2024/04/13 11:00:57;;;;;;;6.97;4.07;;;24.70;91.40;;;;;;5379868;26;20463;-59
2024/04/13 11:03:30;;;;;;;8.93;4.60;;;24.80;89.70;;;;;;5380560;26;20452;-59
2024/04/13 11:05:57;;;;;;;4.83;3.70;;;24.90;92.50;;;;;;5380498;26;20460;-58
2024/04/13 11:08:26;;;;;;;4.87;3.90;;;25.10;89.90;;;;;;5380536;26;20876;-58
2024/04/13 11:10:53;;;;;;;4.83;3.63;;;25.30;87.60;;;;;;5380273;26;20511;-59
2024/04/13 11:13:23;;;;;;;7.33;4.57;;;25.40;90.50;;;;;;5380624;26;20918;-59
2024/04/13 11:15:50;;;;;;;8.20;4.83;;;25.60;88.70;;;;;;5380235;26;20465;-59
2024/04/13 11:18:18;;;;;;;5.87;3.97;;;25.70;92.20;;;;;;5376241;26;21178;-59
2024/04/13 11:20:52;;;;;;;4.90;3.87;;;25.80;87.60;;;;;;5377723;26;20516;-59
2024/04/13 11:23:21;;;;;;;5.40;4.00;;;26.10;91.00;;;;;;5379859;26;20460;-59
2024/04/13 11:25:47;;;;;;;7.90;3.60;;;26.30;88.50;;;;;;5380115;26;20993;-59
2024/04/13 11:28:16;;;;;;;5.67;4.10;;;26.30;86.20;;;;;;5379703;26;21049;-58
2024/04/13 11:30:43;;;;;;;6.40;4.10;;;26.40;86.00;;;;;;5379514;26;21121;-58
2024/04/13 11:33:12;;;;;;;6.77;3.93;;;26.50;86.70;;;;;;5379629;26;20464;-59
2024/04/13 11:35:39;;;;;;;5.60;4.10;;;26.60;85.50;;;;;;5377927;26;20468;-59
2024/04/13 11:38:10;;;;;;;5.47;3.70;;;26.90;85.60;;;;;;5380050;26;20467;-59
2024/04/13 11:40:36;;;;;;;4.57;3.77;;;27.10;84.50;;;;;;5380040;26;20516;-61
2024/04/13 11:43:06;;;;;;;5.13;3.83;;;27.40;86.90;;;;;;5378842;26;20582;-59
2024/04/13 11:45:32;;;;;;;5.03;3.60;;;27.50;87.10;;;;;;5379793;26;20796;-59
2024/04/13 11:48:02;;;;;;;5.43;3.97;;;27.60;85.60;;;;;;5379776;26;20517;-59
2024/04/13 11:50:30;;;;;;;5.00;3.70;;;27.80;85.50;;;;;;5379515;26;20476;-60
2024/04/13 11:52:59;;;;;;;5.70;3.50;;;27.90;86.30;;;;;;5379759;26;20523;-59
2024/04/13 11:55:31;;;;;;;4.50;3.60;;;28.20;84.00;;;;;;5379195;26;20508;-59
2024/04/13 11:58:00;;;;;;;4.03;3.20;;;28.30;81.40;;;;;;5379016;26;20540;-59
2024/04/13 12:00:26;;;;;;;5.80;3.60;;;28.30;81.00;;;;;;5379043;26;20455;-59
2024/04/13 12:02:56;;;;;;;3.77;3.30;;;28.10;83.80;;;;;;5379653;26;20508;-60
2024/04/13 12:05:23;;;;;;;4.97;3.50;;;28.10;84.80;;;;;;5379607;26;20464;-58
2024/04/13 12:07:52;;;;;;;4.23;3.20;;;28.30;81.40;;;;;;5377282;26;21022;-61
2024/04/13 12:10:18;;;;;;;8.13;3.33;;;28.50;81.30;;;;;;5378180;26;20479;-59
2024/04/13 12:12:50;;;;;;;7.70;3.77;;;28.60;81.20;;;;;;5377525;26;20476;-59
2024/04/13 12:15:16;;;;;;;4.73;3.60;;;28.80;80.60;;;;;;5379216;26;20464;-59
2024/04/13 12:17:44;;;;;;;3.33;3.00;;;28.90;80.20;;;;;;5379134;26;20543;-58
2024/04/13 12:20:11;;;;;;;5.53;3.50;;;29.10;80.20;;;;;;5379264;26;21034;-58
2024/04/13 12:22:40;;;;;;;6.70;3.30;;;29.20;82.80;;;;;;5379029;26;20538;-59
2024/04/13 12:25:06;;;;;;;6.43;3.23;;;29.40;81.50;;;;;;5376956;26;20511;-58
2024/04/13 12:27:35;;;;;;;5.03;3.30;;;29.50;78.20;;;;;;5378644;26;20459;-59
2024/04/13 12:30:07;;;;;;;5.07;3.37;;;29.70;78.40;;;;;;5378870;26;20827;-59
2024/04/13 12:32:38;;;;;;;3.57;2.90;;;29.70;78.30;;;;;;5377061;26;21108;-58
2024/04/13 12:35:07;;;;;;;4.40;2.90;;;29.60;79.00;;;;;;5376217;26;20463;-58
2024/04/13 12:37:38;;;;;;;5.47;3.07;;;29.40;76.80;;;;;;5379000;26;20581;-60
2024/04/13 12:40:05;;;;;;;3.63;2.80;;;29.40;77.30;;;;;;5378743;26;20512;-58
2024/04/13 12:42:34;;;;;;;6.20;3.50;;;29.50;75.20;;;;;;5375100;26;20889;-60
2024/04/13 12:45:00;;;;;;;4.20;3.13;;;29.70;76.70;;;;;;5378330;26;20510;-60
2024/04/13 12:47:34;;;;;;;6.70;3.07;;;29.80;77.30;;;;;;5378257;26;20907;-59
2024/04/13 12:50:02;;;;;;;3.77;3.10;;;30.00;76.80;;;;;;5378373;26;20531;-60
2024/04/13 12:52:31;;;;;;;4.20;3.10;;;30.00;76.00;;;;;;5377855;26;20500;-59